Time,TemperatureF,DewpointF,PressureIn,WindDirection,WindDirectionDegrees,WindSpeedMPH,WindSpeedGustMPH,Humidity,HourlyPrecipIn,Conditions,Clouds,dailyrainin,SoftwareType,DateUTC
2013-05-23 00:21:00,47.0,4.0,29.56,WSW,240,4.0,10.0,17,0.00,,,-99.99,,2013-05-23 07:21:00,
2013-05-23 00:31:00,47.0,4.0,29.56,WSW,240,4.0,10.0,17,0.00,,,-99.99,,2013-05-23 07:31:00,
2013-05-23 00:42:00,47.0,4.0,29.56,WSW,240,4.0,10.0,17,0.00,,,-99.99,,2013-05-23 07:42:00,
2013-05-23 01:21:00,47.0,3.0,29.57,SW,220,3.0,10.0,16,0.00,,,-99.99,,2013-05-23 08:21:00,
2013-05-23 01:31:00,47.0,3.0,29.57,SW,220,3.0,10.0,16,0.00,,,-99.99,,2013-05-23 08:31:00,
2013-05-23 01:41:00,47.0,3.0,29.57,SW,220,3.0,10.0,16,0.00,,,-99.99,,2013-05-23 08:41:00,
2013-05-23 02:21:00,47.0,-1.0,29.57,SSW,210,2.0,8.0,13,0.00,,,-99.99,,2013-05-23 09:21:00,
2013-05-23 02:33:00,47.0,-1.0,29.57,SSW,210,2.0,8.0,13,0.00,,,-99.99,,2013-05-23 09:33:00,
2013-05-23 03:22:00,46.0,0.0,29.57,WSW,240,3.0,8.0,14,0.00,,,-99.99,,2013-05-23 10:22:00,
2013-05-23 03:32:00,46.0,0.0,29.57,WSW,240,3.0,8.0,14,0.00,,,-99.99,,2013-05-23 10:32:00,
2013-05-23 03:42:00,46.0,0.0,29.57,WSW,240,3.0,8.0,14,0.00,,,-99.99,,2013-05-23 10:42:00,
2013-05-23 04:21:00,47.0,-30.0,29.57,SSW,200,3.0,8.0,3,0.00,,,-99.99,,2013-05-23 11:21:00,
2013-05-23 04:32:00,47.0,-30.0,29.57,SSW,200,3.0,8.0,3,0.00,,,-99.99,,2013-05-23 11:32:00,
2013-05-23 05:21:00,48.0,-48.0,29.58,South,170,5.0,8.0,1,0.00,,,-99.99,,2013-05-23 12:21:00,
2013-05-23 05:32:00,48.0,-48.0,29.58,South,170,5.0,8.0,1,0.00,,,-99.99,,2013-05-23 12:32:00,
2013-05-23 06:22:00,47.0,-49.0,29.58,West,260,1.0,6.0,1,0.00,,,-99.99,,2013-05-23 13:22:00,
2013-05-23 06:31:00,47.0,-49.0,29.58,West,260,1.0,6.0,1,0.00,,,-99.99,,2013-05-23 13:31:00,
2013-05-23 07:21:00,50.0,-35.0,29.60,North,360,1.0,5.0,2,0.00,,,-99.99,,2013-05-23 14:21:00,
2013-05-23 07:32:00,50.0,-35.0,29.60,North,360,1.0,5.0,2,0.00,,,-99.99,,2013-05-23 14:32:00,
2013-05-23 08:21:00,54.0,-45.0,29.61,SSE,150,1.0,8.0,1,0.00,,,-99.99,,2013-05-23 15:21:00,
2013-05-23 08:32:00,54.0,-45.0,29.61,SSE,150,1.0,8.0,1,0.00,,,-99.99,,2013-05-23 15:32:00,
2013-05-23 09:23:00,59.0,-41.0,29.63,North,0,0.0,6.0,1,0.00,,,-99.99,,2013-05-23 16:23:00,
2013-05-23 09:33:00,59.0,-41.0,29.63,North,0,0.0,6.0,1,0.00,,,-99.99,,2013-05-23 16:33:00,
2013-05-23 10:22:00,60.0,-29.0,29.65,SW,220,3.0,6.0,2,0.00,,,-99.99,,2013-05-23 17:22:00,
2013-05-23 10:33:00,60.0,-29.0,29.65,SW,220,3.0,6.0,2,0.00,,,-99.99,,2013-05-23 17:33:00,
2013-05-23 11:21:00,65.0,-18.0,29.67,SW,230,1.0,9.0,3,0.00,,,-99.99,,2013-05-23 18:21:00,
2013-05-23 11:32:00,65.0,-18.0,29.67,SW,230,1.0,9.0,3,0.00,,,-99.99,,2013-05-23 18:32:00,
2013-05-23 12:21:00,66.0,3.0,29.68,North,0,0.0,4.0,8,0.00,,,-99.99,,2013-05-23 19:21:00,
2013-05-23 12:32:00,66.0,3.0,29.68,North,0,0.0,4.0,8,0.00,,,-99.99,,2013-05-23 19:32:00,
2013-05-23 12:41:00,66.0,3.0,29.68,North,0,0.0,4.0,8,0.00,,,-99.99,,2013-05-23 19:41:00,
2013-05-23 13:21:00,64.0,4.0,29.68,SW,230,2.0,5.0,9,0.00,,,-99.99,,2013-05-23 20:21:00,
2013-05-23 13:32:00,64.0,4.0,29.68,SW,230,2.0,5.0,9,0.00,,,-99.99,,2013-05-23 20:32:00,
2013-05-23 13:41:00,64.0,4.0,29.68,SW,230,2.0,5.0,9,0.00,,,-99.99,,2013-05-23 20:41:00,
2013-05-23 14:21:00,65.0,2.0,29.69,ESE,120,2.0,3.0,8,0.00,,,-99.99,,2013-05-23 21:21:00,
2013-05-23 14:32:00,65.0,2.0,29.69,ESE,120,2.0,3.0,8,0.00,,,-99.99,,2013-05-23 21:32:00,
2013-05-23 14:43:00,65.0,2.0,29.69,ESE,120,2.0,3.0,8,0.00,,,-99.99,,2013-05-23 21:43:00,
2013-05-23 15:22:00,65.0,2.0,29.69,SE,140,2.0,4.0,8,0.00,,,-99.99,,2013-05-23 22:22:00,
2013-05-23 15:33:00,65.0,2.0,29.69,SE,140,2.0,4.0,8,0.00,,,-99.99,,2013-05-23 22:33:00,
2013-05-23 15:42:00,65.0,2.0,29.69,SE,140,2.0,4.0,8,0.00,,,-99.99,,2013-05-23 22:42:00,
2013-05-23 16:21:00,61.0,14.0,29.69,ENE,70,1.0,5.0,16,0.00,,,-99.99,,2013-05-23 23:21:00,
2013-05-23 16:31:00,61.0,14.0,29.69,ENE,70,1.0,5.0,16,0.00,,,-99.99,,2013-05-23 23:31:00,
2013-05-23 16:42:00,61.0,14.0,29.69,ENE,70,1.0,5.0,16,0.00,,,-99.99,,2013-05-23 23:42:00,
2013-05-23 17:21:00,57.0,24.0,29.68,North,0,0.0,6.0,28,0.00,,,-99.99,,2013-05-24 00:21:00,
2013-05-23 17:31:00,57.0,24.0,29.68,North,0,0.0,6.0,28,0.00,,,-99.99,,2013-05-24 00:31:00,
2013-05-23 17:42:00,57.0,24.0,29.68,North,0,0.0,6.0,28,0.00,,,-99.99,,2013-05-24 00:42:00,
2013-05-23 18:22:00,55.0,29.0,29.68,WSW,250,3.0,5.0,37,0.00,,,-99.99,,2013-05-24 01:22:00,
2013-05-23 18:32:00,55.0,29.0,29.68,WSW,250,3.0,5.0,37,0.00,,,-99.99,,2013-05-24 01:32:00,
2013-05-23 18:41:00,55.0,29.0,29.68,WSW,250,3.0,5.0,37,0.00,,,-99.99,,2013-05-24 01:41:00,
2013-05-23 19:21:00,52.0,30.0,29.67,West,270,4.0,8.0,42,0.00,,,-99.99,,2013-05-24 02:21:00,
2013-05-23 19:32:00,52.0,30.0,29.67,West,270,4.0,8.0,42,0.00,,,-99.99,,2013-05-24 02:32:00,
2013-05-23 19:42:00,52.0,30.0,29.67,West,270,4.0,8.0,42,0.00,,,-99.99,,2013-05-24 02:42:00,
2013-05-23 20:21:00,50.0,27.0,29.69,North,0,0.0,1.0,40,0.00,,,-99.99,,2013-05-24 03:21:00,
2013-05-23 20:33:00,50.0,27.0,29.69,North,0,0.0,1.0,40,0.00,,,-99.99,,2013-05-24 03:33:00,
2013-05-23 20:42:00,50.0,27.0,29.69,North,0,0.0,1.0,40,0.00,,,-99.99,,2013-05-24 03:42:00,
2013-05-23 21:22:00,46.0,27.0,29.71,North,0,0.0,2.0,48,0.00,,,-99.99,,2013-05-24 04:22:00,
2013-05-23 21:33:00,46.0,27.0,29.71,North,0,0.0,2.0,48,0.00,,,-99.99,,2013-05-24 04:33:00,
2013-05-23 21:42:00,46.0,27.0,29.71,North,0,0.0,2.0,48,0.00,,,-99.99,,2013-05-24 04:42:00,
2013-05-23 22:22:00,44.0,14.0,29.73,North,0,0.0,1.0,29,0.00,,,-99.99,,2013-05-24 05:22:00,
2013-05-23 22:32:00,44.0,14.0,29.73,North,0,0.0,1.0,29,0.00,,,-99.99,,2013-05-24 05:32:00,
2013-05-23 22:42:00,44.0,14.0,29.73,North,0,0.0,1.0,29,0.00,,,-99.99,,2013-05-24 05:42:00,
2013-05-23 23:21:00,45.0,5.0,29.75,North,0,0.0,2.0,19,0.00,,,-99.99,,2013-05-24 06:21:00,
2013-05-23 23:32:00,45.0,5.0,29.75,North,0,0.0,2.0,19,0.00,,,-99.99,,2013-05-24 06:32:00,
2013-05-23 23:41:00,45.0,5.0,29.75,North,0,0.0,2.0,19,0.00,,,-99.99,,2013-05-24 06:41:00,